sensor_id;sensor_type;location;lat;lon;timestamp;temperature;humidity
65573;SHT30;52214;50.940;13.996;2022-12-11T00:02:17;-1.52;99.99
65573;SHT30;52214;50.940;13.996;2022-12-11T00:04:42;-1.51;99.99
65573;SHT30;52214;50.940;13.996;2022-12-11T00:07:08;-1.52;99.99
65573;SHT30;52214;50.940;13.996;2022-12-11T00:09:33;-1.48;99.99
65573;SHT30;52214;50.940;13.996;2022-12-11T00:11:59;-1.51;99.99
65573;SHT30;52214;50.940;13.996;2022-12-11T00:14:28;-1.56;99.99
65573;SHT30;52214;50.940;13.996;2022-12-11T00:16:54;-1.47;99.99
65573;SHT30;52214;50.940;13.996;2022-12-11T00:19:19;-1.45;99.99
65573;SHT30;52214;50.940;13.996;2022-12-11T00:21:45;-1.49;99.99
65573;SHT30;52214;50.940;13.996;2022-12-11T00:24:11;-1.47;99.99
65573;SHT30;52214;50.940;13.996;2022-12-11T00:26:37;-1.52;99.99
65573;SHT30;52214;50.940;13.996;2022-12-11T00:29:03;-1.47;99.99
65573;SHT30;52214;50.940;13.996;2022-12-11T00:31:29;-1.52;99.99
65573;SHT30;52214;50.940;13.996;2022-12-11T00:33:54;-1.55;99.99
65573;SHT30;52214;50.940;13.996;2022-12-11T00:36:25;-1.47;99.99
65573;SHT30;52214;50.940;13.996;2022-12-11T00:38:51;-1.54;99.99
65573;SHT30;52214;50.940;13.996;2022-12-11T00:41:18;-1.52;99.99
65573;SHT30;52214;50.940;13.996;2022-12-11T00:43:44;-1.48;99.99
65573;SHT30;52214;50.940;13.996;2022-12-11T00:46:10;-1.59;99.99
65573;SHT30;52214;50.940;13.996;2022-12-11T00:48:36;-1.51;99.99
65573;SHT30;52214;50.940;13.996;2022-12-11T00:51:02;-1.59;99.99
65573;SHT30;52214;50.940;13.996;2022-12-11T00:53:27;-1.54;99.99
65573;SHT30;52214;50.940;13.996;2022-12-11T00:55:53;-1.59;99.99
65573;SHT30;52214;50.940;13.996;2022-12-11T00:58:19;-1.59;99.99
65573;SHT30;52214;50.940;13.996;2022-12-11T01:00:44;-1.59;99.99
65573;SHT30;52214;50.940;13.996;2022-12-11T01:03:13;-1.49;99.99
65573;SHT30;52214;50.940;13.996;2022-12-11T01:05:39;-1.48;99.99
65573;SHT30;52214;50.940;13.996;2022-12-11T01:08:05;-1.56;99.99
65573;SHT30;52214;50.940;13.996;2022-12-11T01:10:31;-1.58;99.99
65573;SHT30;52214;50.940;13.996;2022-12-11T01:13:00;-1.51;99.99
65573;SHT30;52214;50.940;13.996;2022-12-11T01:15:28;-1.56;99.99
65573;SHT30;52214;50.940;13.996;2022-12-11T01:17:54;-1.59;99.99
65573;SHT30;52214;50.940;13.996;2022-12-11T01:20:21;-1.63;99.99
65573;SHT30;52214;50.940;13.996;2022-12-11T01:22:51;-1.56;99.99
65573;SHT30;52214;50.940;13.996;2022-12-11T01:25:17;-1.55;99.99
65573;SHT30;52214;50.940;13.996;2022-12-11T01:27:42;-1.62;99.99
65573;SHT30;52214;50.940;13.996;2022-12-11T01:30:08;-1.62;99.99
65573;SHT30;52214;50.940;13.996;2022-12-11T01:32:35;-1.65;99.99
65573;SHT30;52214;50.940;13.996;2022-12-11T01:35:05;-1.65;99.99
65573;SHT30;52214;50.940;13.996;2022-12-11T01:37:32;-1.70;99.99
65573;SHT30;52214;50.940;13.996;2022-12-11T01:40:00;-1.59;99.99
65573;SHT30;52214;50.940;13.996;2022-12-11T01:42:26;-1.66;99.99
65573;SHT30;52214;50.940;13.996;2022-12-11T01:47:37;-1.79;99.99
65573;SHT30;52214;50.940;13.996;2022-12-11T01:50:03;-1.75;99.99
65573;SHT30;52214;50.940;13.996;2022-12-11T01:52:29;-1.77;99.99
65573;SHT30;52214;50.940;13.996;2022-12-11T01:54:54;-1.79;99.99
65573;SHT30;52214;50.940;13.996;2022-12-11T01:57:20;-1.79;99.99
65573;SHT30;52214;50.940;13.996;2022-12-11T01:59:46;-1.76;99.99
65573;SHT30;52214;50.940;13.996;2022-12-11T02:02:19;-1.70;99.99
65573;SHT30;52214;50.940;13.996;2022-12-11T02:04:47;-1.72;99.99
65573;SHT30;52214;50.940;13.996;2022-12-11T02:07:13;-1.79;99.99
65573;SHT30;52214;50.940;13.996;2022-12-11T02:09:41;-1.83;99.99
65573;SHT30;52214;50.940;13.996;2022-12-11T02:12:30;-1.62;99.99
65573;SHT30;52214;50.940;13.996;2022-12-11T02:15:57;-1.70;99.99
65573;SHT30;52214;50.940;13.996;2022-12-11T02:18:23;-1.76;99.99
65573;SHT30;52214;50.940;13.996;2022-12-11T02:21:07;-1.80;99.99
65573;SHT30;52214;50.940;13.996;2022-12-11T02:29:37;-1.79;99.99
65573;SHT30;52214;50.940;13.996;2022-12-11T02:32:10;-1.77;99.99
65573;SHT30;52214;50.940;13.996;2022-12-11T02:34:45;-1.86;99.99
65573;SHT30;52214;50.940;13.996;2022-12-11T02:37:16;-1.91;99.99
65573;SHT30;52214;50.940;13.996;2022-12-11T02:39:44;-1.82;99.99
65573;SHT30;52214;50.940;13.996;2022-12-11T02:42:11;-1.83;99.99
65573;SHT30;52214;50.940;13.996;2022-12-11T02:44:39;-1.86;99.99
65573;SHT30;52214;50.940;13.996;2022-12-11T02:47:08;-1.82;99.99
65573;SHT30;52214;50.940;13.996;2022-12-11T02:49:35;-1.91;99.99
65573;SHT30;52214;50.940;13.996;2022-12-11T02:52:03;-1.83;99.99
65573;SHT30;52214;50.940;13.996;2022-12-11T02:54:32;-1.87;99.99
65573;SHT30;52214;50.940;13.996;2022-12-11T02:59:33;-1.90;99.99
65573;SHT30;52214;50.940;13.996;2022-12-11T03:02:01;-1.91;99.99
65573;SHT30;52214;50.940;13.996;2022-12-11T03:04:27;-1.90;99.99
65573;SHT30;52214;50.940;13.996;2022-12-11T03:06:55;-1.87;99.99
65573;SHT30;52214;50.940;13.996;2022-12-11T03:09:24;-2.01;99.99
65573;SHT30;52214;50.940;13.996;2022-12-11T03:11:51;-2.04;99.99
65573;SHT30;52214;50.940;13.996;2022-12-11T03:14:17;-2.11;99.99
65573;SHT30;52214;50.940;13.996;2022-12-11T03:17:07;-2.13;99.99
65573;SHT30;52214;50.940;13.996;2022-12-11T03:19:39;-2.18;99.99
65573;SHT30;52214;50.940;13.996;2022-12-11T03:22:08;-2.18;99.99
65573;SHT30;52214;50.940;13.996;2022-12-11T03:24:45;-2.25;99.99
65573;SHT30;52214;50.940;13.996;2022-12-11T03:30:03;-2.37;99.99
65573;SHT30;52214;50.940;13.996;2022-12-11T03:32:39;-2.32;99.99
65573;SHT30;52214;50.940;13.996;2022-12-11T03:35:13;-2.40;99.99
65573;SHT30;52214;50.940;13.996;2022-12-11T03:37:42;-2.31;99.99
65573;SHT30;52214;50.940;13.996;2022-12-11T03:40:14;-2.35;99.99
65573;SHT30;52214;50.940;13.996;2022-12-11T03:42:42;-2.38;99.99
65573;SHT30;52214;50.940;13.996;2022-12-11T03:45:09;-2.38;99.99
65573;SHT30;52214;50.940;13.996;2022-12-11T03:47:36;-2.42;99.99
65573;SHT30;52214;50.940;13.996;2022-12-11T03:50:04;-2.38;99.99
65573;SHT30;52214;50.940;13.996;2022-12-11T03:52:32;-2.37;99.99
65573;SHT30;52214;50.940;13.996;2022-12-11T03:55:00;-2.40;99.99
65573;SHT30;52214;50.940;13.996;2022-12-11T03:57:31;-2.34;99.99
65573;SHT30;52214;50.940;13.996;2022-12-11T03:59:57;-2.31;99.99
65573;SHT30;52214;50.940;13.996;2022-12-11T04:02:23;-2.37;99.99
65573;SHT30;52214;50.940;13.996;2022-12-11T04:04:49;-2.38;99.99
65573;SHT30;52214;50.940;13.996;2022-12-11T04:07:14;-2.27;99.99
65573;SHT30;52214;50.940;13.996;2022-12-11T04:09:40;-2.32;99.99
65573;SHT30;52214;50.940;13.996;2022-12-11T04:12:05;-2.37;99.99
65573;SHT30;52214;50.940;13.996;2022-12-11T04:14:31;-2.32;99.99
65573;SHT30;52214;50.940;13.996;2022-12-11T04:17:15;-2.31;99.99
65573;SHT30;52214;50.940;13.996;2022-12-11T04:20:01;-2.28;99.99
65573;SHT30;52214;50.940;13.996;2022-12-11T04:22:45;-2.14;99.99
65573;SHT30;52214;50.940;13.996;2022-12-11T04:25:29;-2.22;99.99
65573;SHT30;52214;50.940;13.996;2022-12-11T04:27:54;-2.31;99.99
65573;SHT30;52214;50.940;13.996;2022-12-11T04:30:23;-2.32;99.99
65573;SHT30;52214;50.940;13.996;2022-12-11T04:32:50;-2.25;99.99
65573;SHT30;52214;50.940;13.996;2022-12-11T04:35:16;-2.21;99.99
65573;SHT30;52214;50.940;13.996;2022-12-11T04:37:41;-2.31;99.99
65573;SHT30;52214;50.940;13.996;2022-12-11T04:40:10;-2.21;99.99
65573;SHT30;52214;50.940;13.996;2022-12-11T04:42:36;-2.35;99.99
65573;SHT30;52214;50.940;13.996;2022-12-11T04:45:03;-2.31;99.99
65573;SHT30;52214;50.940;13.996;2022-12-11T04:47:29;-2.37;99.99
65573;SHT30;52214;50.940;13.996;2022-12-11T04:49:54;-2.31;99.99
65573;SHT30;52214;50.940;13.996;2022-12-11T04:52:20;-2.42;99.99
65573;SHT30;52214;50.940;13.996;2022-12-11T04:54:46;-2.44;99.99
65573;SHT30;52214;50.940;13.996;2022-12-11T04:57:11;-2.40;99.99
65573;SHT30;52214;50.940;13.996;2022-12-11T04:59:37;-2.49;99.99
65573;SHT30;52214;50.940;13.996;2022-12-11T05:02:03;-2.44;99.99
65573;SHT30;52214;50.940;13.996;2022-12-11T05:04:32;-2.45;99.99
65573;SHT30;52214;50.940;13.996;2022-12-11T05:06:58;-2.32;99.99
65573;SHT30;52214;50.940;13.996;2022-12-11T05:09:24;-2.35;99.99
65573;SHT30;52214;50.940;13.996;2022-12-11T05:11:51;-2.35;99.99
65573;SHT30;52214;50.940;13.996;2022-12-11T05:14:16;-2.45;99.99
65573;SHT30;52214;50.940;13.996;2022-12-11T05:16:42;-2.42;99.99
65573;SHT30;52214;50.940;13.996;2022-12-11T05:19:07;-2.41;99.99
65573;SHT30;52214;50.940;13.996;2022-12-11T05:21:33;-2.44;99.99
65573;SHT30;52214;50.940;13.996;2022-12-11T05:23:58;-2.31;99.99
65573;SHT30;52214;50.940;13.996;2022-12-11T05:26:24;-2.27;99.99
65573;SHT30;52214;50.940;13.996;2022-12-11T05:28:51;-2.30;99.99
65573;SHT30;52214;50.940;13.996;2022-12-11T05:31:20;-2.38;99.99
65573;SHT30;52214;50.940;13.996;2022-12-11T05:33:47;-2.42;99.99
65573;SHT30;52214;50.940;13.996;2022-12-11T05:36:24;-2.44;99.99
65573;SHT30;52214;50.940;13.996;2022-12-11T05:38:51;-2.48;99.99
65573;SHT30;52214;50.940;13.996;2022-12-11T05:41:19;-2.52;99.99
65573;SHT30;52214;50.940;13.996;2022-12-11T05:43:45;-2.49;99.99
65573;SHT30;52214;50.940;13.996;2022-12-11T05:46:20;-2.53;99.99
65573;SHT30;52214;50.940;13.996;2022-12-11T05:48:49;-2.55;99.99
65573;SHT30;52214;50.940;13.996;2022-12-11T05:51:16;-2.56;99.99
65573;SHT30;52214;50.940;13.996;2022-12-11T05:53:43;-2.58;99.99
65573;SHT30;52214;50.940;13.996;2022-12-11T05:56:12;-2.55;99.99
65573;SHT30;52214;50.940;13.996;2022-12-11T05:58:39;-2.55;99.99
65573;SHT30;52214;50.940;13.996;2022-12-11T06:01:15;-2.56;99.99
65573;SHT30;52214;50.940;13.996;2022-12-11T06:03:41;-2.65;99.99
65573;SHT30;52214;50.940;13.996;2022-12-11T06:06:07;-2.63;99.99
65573;SHT30;52214;50.940;13.996;2022-12-11T06:08:33;-2.55;99.99
65573;SHT30;52214;50.940;13.996;2022-12-11T06:10:59;-2.35;99.99
65573;SHT30;52214;50.940;13.996;2022-12-11T06:13:25;-2.41;99.99
65573;SHT30;52214;50.940;13.996;2022-12-11T06:15:51;-2.31;99.99
65573;SHT30;52214;50.940;13.996;2022-12-11T06:18:16;-2.40;99.99
65573;SHT30;52214;50.940;13.996;2022-12-11T06:20:42;-2.30;99.99
65573;SHT30;52214;50.940;13.996;2022-12-11T06:23:08;-2.46;99.99
65573;SHT30;52214;50.940;13.996;2022-12-11T06:25:33;-2.51;99.99
65573;SHT30;52214;50.940;13.996;2022-12-11T06:27:59;-2.25;99.99
65573;SHT30;52214;50.940;13.996;2022-12-11T06:30:25;-2.49;99.99
65573;SHT30;52214;50.940;13.996;2022-12-11T06:32:50;-2.31;99.99
65573;SHT30;52214;50.940;13.996;2022-12-11T06:35:16;-2.46;99.99
65573;SHT30;52214;50.940;13.996;2022-12-11T06:37:41;-2.52;99.99
65573;SHT30;52214;50.940;13.996;2022-12-11T06:40:08;-2.55;99.99
65573;SHT30;52214;50.940;13.996;2022-12-11T06:42:35;-2.55;99.99
65573;SHT30;52214;50.940;13.996;2022-12-11T06:45:00;-2.59;99.99
65573;SHT30;52214;50.940;13.996;2022-12-11T06:47:26;-2.63;99.99
65573;SHT30;52214;50.940;13.996;2022-12-11T06:49:52;-2.48;99.99
65573;SHT30;52214;50.940;13.996;2022-12-11T06:52:22;-2.58;99.99
65573;SHT30;52214;50.940;13.996;2022-12-11T06:54:48;-2.41;99.99
65573;SHT30;52214;50.940;13.996;2022-12-11T06:57:14;-2.58;99.99
65573;SHT30;52214;50.940;13.996;2022-12-11T06:59:40;-2.66;99.99
65573;SHT30;52214;50.940;13.996;2022-12-11T07:02:05;-2.55;99.99
65573;SHT30;52214;50.940;13.996;2022-12-11T07:04:31;-2.40;99.99
65573;SHT30;52214;50.940;13.996;2022-12-11T07:06:57;-2.44;99.99
65573;SHT30;52214;50.940;13.996;2022-12-11T07:09:23;-2.40;99.99
65573;SHT30;52214;50.940;13.996;2022-12-11T07:11:49;-2.34;99.99
65573;SHT30;52214;50.940;13.996;2022-12-11T07:14:15;-2.40;99.99
65573;SHT30;52214;50.940;13.996;2022-12-11T07:16:41;-2.41;99.99
65573;SHT30;52214;50.940;13.996;2022-12-11T07:19:06;-2.38;99.99
65573;SHT30;52214;50.940;13.996;2022-12-11T07:21:32;-2.31;99.99
65573;SHT30;52214;50.940;13.996;2022-12-11T07:23:57;-2.27;99.99
65573;SHT30;52214;50.940;13.996;2022-12-11T07:26:23;-2.24;99.99
65573;SHT30;52214;50.940;13.996;2022-12-11T07:28:49;-2.31;99.99
65573;SHT30;52214;50.940;13.996;2022-12-11T07:31:17;-2.45;99.99
65573;SHT30;52214;50.940;13.996;2022-12-11T07:33:43;-2.53;99.99
65573;SHT30;52214;50.940;13.996;2022-12-11T07:36:11;-2.42;99.99
65573;SHT30;52214;50.940;13.996;2022-12-11T07:38:37;-2.56;99.99
65573;SHT30;52214;50.940;13.996;2022-12-11T07:41:05;-2.62;99.99
65573;SHT30;52214;50.940;13.996;2022-12-11T07:43:35;-2.58;99.99
65573;SHT30;52214;50.940;13.996;2022-12-11T07:46:03;-2.48;99.99
65573;SHT30;52214;50.940;13.996;2022-12-11T07:48:29;-2.40;99.99
65573;SHT30;52214;50.940;13.996;2022-12-11T07:50:54;-2.55;99.99
65573;SHT30;52214;50.940;13.996;2022-12-11T07:53:20;-2.45;99.99
65573;SHT30;52214;50.940;13.996;2022-12-11T07:55:45;-2.41;99.99
65573;SHT30;52214;50.940;13.996;2022-12-11T07:58:11;-2.55;99.99
65573;SHT30;52214;50.940;13.996;2022-12-11T08:00:36;-2.49;99.99
65573;SHT30;52214;50.940;13.996;2022-12-11T08:03:02;-2.44;99.99
65573;SHT30;52214;50.940;13.996;2022-12-11T08:05:27;-2.60;99.99
65573;SHT30;52214;50.940;13.996;2022-12-11T08:07:53;-2.60;99.99
65573;SHT30;52214;50.940;13.996;2022-12-11T08:10:19;-2.55;99.36
65573;SHT30;52214;50.940;13.996;2022-12-11T08:12:44;-2.46;99.90
65573;SHT30;52214;50.940;13.996;2022-12-11T08:15:10;-2.52;99.99
65573;SHT30;52214;50.940;13.996;2022-12-11T08:17:35;-2.42;99.57
65573;SHT30;52214;50.940;13.996;2022-12-11T08:20:01;-2.52;99.87
65573;SHT30;52214;50.940;13.996;2022-12-11T08:22:26;-2.46;99.87
65573;SHT30;52214;50.940;13.996;2022-12-11T08:24:52;-2.28;99.61
65573;SHT30;52214;50.940;13.996;2022-12-11T08:27:17;-2.28;98.75
65573;SHT30;52214;50.940;13.996;2022-12-11T08:29:43;-2.45;98.54
65573;SHT30;52214;50.940;13.996;2022-12-11T08:32:10;-2.44;99.19
65573;SHT30;52214;50.940;13.996;2022-12-11T08:34:38;-2.42;99.49
65573;SHT30;52214;50.940;13.996;2022-12-11T08:37:03;-2.59;98.98
65573;SHT30;52214;50.940;13.996;2022-12-11T08:39:29;-2.68;99.20
65573;SHT30;52214;50.940;13.996;2022-12-11T08:41:55;-2.53;99.38
65573;SHT30;52214;50.940;13.996;2022-12-11T08:44:21;-2.42;98.96
65573;SHT30;52214;50.940;13.996;2022-12-11T08:46:49;-2.52;98.30
65573;SHT30;52214;50.940;13.996;2022-12-11T08:49:14;-2.24;99.07
65573;SHT30;52214;50.940;13.996;2022-12-11T08:51:40;-2.31;98.91
65573;SHT30;52214;50.940;13.996;2022-12-11T08:54:06;-2.32;98.21
65573;SHT30;52214;50.940;13.996;2022-12-11T08:56:31;-2.55;98.66
65573;SHT30;52214;50.940;13.996;2022-12-11T08:59:00;-2.34;99.29
65573;SHT30;52214;50.940;13.996;2022-12-11T09:01:26;-2.25;98.15
65573;SHT30;52214;50.940;13.996;2022-12-11T09:03:53;-2.35;98.46
65573;SHT30;52214;50.940;13.996;2022-12-11T09:06:21;-2.31;98.76
65573;SHT30;52214;50.940;13.996;2022-12-11T09:08:49;-2.08;98.09
65573;SHT30;52214;50.940;13.996;2022-12-11T09:11:18;-2.52;97.88
65573;SHT30;52214;50.940;13.996;2022-12-11T09:13:44;-2.18;97.59
65573;SHT30;52214;50.940;13.996;2022-12-11T09:16:13;-2.20;96.95
65573;SHT30;52214;50.940;13.996;2022-12-11T09:18:39;-2.40;97.65
65573;SHT30;52214;50.940;13.996;2022-12-11T09:21:10;-2.40;98.16
65573;SHT30;52214;50.940;13.996;2022-12-11T09:23:38;-2.44;98.11
65573;SHT30;52214;50.940;13.996;2022-12-11T09:26:05;-2.30;97.68
65573;SHT30;52214;50.940;13.996;2022-12-11T09:28:31;-2.41;96.94
65573;SHT30;52214;50.940;13.996;2022-12-11T09:30:56;-2.10;97.70
65573;SHT30;52214;50.940;13.996;2022-12-11T09:33:22;-2.18;97.11
65573;SHT30;52214;50.940;13.996;2022-12-11T09:36:00;-2.08;96.35
65573;SHT30;52214;50.940;13.996;2022-12-11T09:38:27;-2.27;96.31
65573;SHT30;52214;50.940;13.996;2022-12-11T09:40:53;-2.41;97.49
65573;SHT30;52214;50.940;13.996;2022-12-11T09:45:53;-1.96;95.63
65573;SHT30;52214;50.940;13.996;2022-12-11T09:48:23;-2.04;95.81
65573;SHT30;52214;50.940;13.996;2022-12-11T09:50:52;-1.90;96.13
65573;SHT30;52214;50.940;13.996;2022-12-11T09:53:33;-1.59;94.76
65573;SHT30;52214;50.940;13.996;2022-12-11T10:01:45;-1.98;94.67
65573;SHT30;52214;50.940;13.996;2022-12-11T10:07:52;-1.66;94.15
65573;SHT30;52214;50.940;13.996;2022-12-11T10:19:02;-2.32;94.88
65573;SHT30;52214;50.940;13.996;2022-12-11T10:21:40;-1.87;94.60
65573;SHT30;52214;50.940;13.996;2022-12-11T10:24:38;-1.97;95.18
65573;SHT30;52214;50.940;13.996;2022-12-11T10:27:17;-1.97;94.99
65573;SHT30;52214;50.940;13.996;2022-12-11T10:29:45;-1.75;94.32
65573;SHT30;52214;50.940;13.996;2022-12-11T10:32:21;-2.14;93.53
65573;SHT30;52214;50.940;13.996;2022-12-11T10:34:56;-2.20;95.13
65573;SHT30;52214;50.940;13.996;2022-12-11T10:37:23;-1.82;95.37
65573;SHT30;52214;50.940;13.996;2022-12-11T10:39:48;-2.03;95.24
65573;SHT30;52214;50.940;13.996;2022-12-11T10:42:19;-1.45;94.82
65573;SHT30;52214;50.940;13.996;2022-12-11T10:44:59;-1.85;94.37
65573;SHT30;52214;50.940;13.996;2022-12-11T10:47:26;-1.52;93.28
65573;SHT30;52214;50.940;13.996;2022-12-11T10:49:57;-1.20;91.51
65573;SHT30;52214;50.940;13.996;2022-12-11T10:52:33;-1.08;91.27
65573;SHT30;52214;50.940;13.996;2022-12-11T10:55:03;-1.15;91.36
65573;SHT30;52214;50.940;13.996;2022-12-11T10:57:33;-1.20;91.19
65573;SHT30;52214;50.940;13.996;2022-12-11T10:59:59;-1.18;91.25
65573;SHT30;52214;50.940;13.996;2022-12-11T11:02:31;-1.58;90.89
65573;SHT30;52214;50.940;13.996;2022-12-11T11:04:59;-1.34;91.42
65573;SHT30;52214;50.940;13.996;2022-12-11T11:07:28;-1.01;92.47
65573;SHT30;52214;50.940;13.996;2022-12-11T11:15:14;-0.47;87.96
65573;SHT30;52214;50.940;13.996;2022-12-11T11:18:38;-0.47;88.11
65573;SHT30;52214;50.940;13.996;2022-12-11T11:20:43;-0.49;87.38
65573;SHT30;52214;50.940;13.996;2022-12-11T11:23:13;-0.76;88.44
65573;SHT30;52214;50.940;13.996;2022-12-11T11:25:48;-0.73;88.47
65573;SHT30;52214;50.940;13.996;2022-12-11T11:28:23;-0.66;88.81
65573;SHT30;52214;50.940;13.996;2022-12-11T11:31:13;-0.90;88.46
65573;SHT30;52214;50.940;13.996;2022-12-11T11:33:56;-0.90;89.53
65573;SHT30;52214;50.940;13.996;2022-12-11T11:36:26;-1.15;89.84
65573;SHT30;52214;50.940;13.996;2022-12-11T11:39:27;-1.35;89.92
65573;SHT30;52214;50.940;13.996;2022-12-11T11:42:14;-1.60;90.85
65573;SHT30;52214;50.940;13.996;2022-12-11T11:44:57;-1.01;89.38
65573;SHT30;52214;50.940;13.996;2022-12-11T11:47:30;-0.85;89.83
65573;SHT30;52214;50.940;13.996;2022-12-11T11:50:12;-1.27;89.65
65573;SHT30;52214;50.940;13.996;2022-12-11T11:52:49;-1.38;91.47
65573;SHT30;52214;50.940;13.996;2022-12-11T11:55:20;-1.65;90.57
65573;SHT30;52214;50.940;13.996;2022-12-11T11:57:57;-1.60;90.47
65573;SHT30;52214;50.940;13.996;2022-12-11T12:00:27;-1.05;90.58
65573;SHT30;52214;50.940;13.996;2022-12-11T12:02:57;-0.83;90.44
65573;SHT30;52214;50.940;13.996;2022-12-11T12:08:31;-0.97;88.02
65573;SHT30;52214;50.940;13.996;2022-12-11T12:16:18;-1.21;88.35
65573;SHT30;52214;50.940;13.996;2022-12-11T12:18:59;-1.17;89.94
65573;SHT30;52214;50.940;13.996;2022-12-11T12:21:36;-1.48;89.40
65573;SHT30;52214;50.940;13.996;2022-12-11T12:24:40;-1.49;90.46
65573;SHT30;52214;50.940;13.996;2022-12-11T12:27:21;-1.52;91.11
65573;SHT30;52214;50.940;13.996;2022-12-11T12:30:17;-1.47;91.32
65573;SHT30;52214;50.940;13.996;2022-12-11T12:35:37;-1.34;91.74
65573;SHT30;52214;50.940;13.996;2022-12-11T12:38:25;-1.49;91.07
65573;SHT30;52214;50.940;13.996;2022-12-11T12:43:58;-1.31;90.55
65573;SHT30;52214;50.940;13.996;2022-12-11T12:49:00;-0.54;89.62
65573;SHT30;52214;50.940;13.996;2022-12-11T12:51:27;-0.39;87.72
65573;SHT30;52214;50.940;13.996;2022-12-11T12:53:56;-0.76;87.47
65573;SHT30;52214;50.940;13.996;2022-12-11T12:56:25;-1.11;88.67
65573;SHT30;52214;50.940;13.996;2022-12-11T12:58:51;-1.25;90.58
65573;SHT30;52214;50.940;13.996;2022-12-11T13:01:22;-1.47;89.31
65573;SHT30;52214;50.940;13.996;2022-12-11T13:03:57;-1.55;90.56
65573;SHT30;52214;50.940;13.996;2022-12-11T13:06:39;-1.55;90.81
65573;SHT30;52214;50.940;13.996;2022-12-11T13:09:21;-1.15;90.34
65573;SHT30;52214;50.940;13.996;2022-12-11T13:11:50;-1.24;90.33
65573;SHT30;52214;50.940;13.996;2022-12-11T13:16:47;-0.77;88.67
65573;SHT30;52214;50.940;13.996;2022-12-11T13:33:07;-1.79;90.51
65573;SHT30;52214;50.940;13.996;2022-12-11T13:35:38;-1.51;90.44
65573;SHT30;52214;50.940;13.996;2022-12-11T13:38:16;-2.04;92.06
65573;SHT30;52214;50.940;13.996;2022-12-11T13:40:43;-2.31;92.79
65573;SHT30;52214;50.940;13.996;2022-12-11T13:43:22;-2.17;93.13
65573;SHT30;52214;50.940;13.996;2022-12-11T13:45:54;-2.21;93.11
65573;SHT30;52214;50.940;13.996;2022-12-11T13:48:26;-2.15;93.81
65573;SHT30;52214;50.940;13.996;2022-12-11T13:50:52;-2.07;93.56
65573;SHT30;52214;50.940;13.996;2022-12-11T13:53:19;-2.15;93.35
65573;SHT30;52214;50.940;13.996;2022-12-11T13:55:46;-2.45;92.34
65573;SHT30;52214;50.940;13.996;2022-12-11T13:58:20;-2.30;93.73
65573;SHT30;52214;50.940;13.996;2022-12-11T14:03:32;-2.25;93.30
65573;SHT30;52214;50.940;13.996;2022-12-11T14:06:00;-2.49;92.75
65573;SHT30;52214;50.940;13.996;2022-12-11T14:08:32;-2.22;90.63
65573;SHT30;52214;50.940;13.996;2022-12-11T14:10:58;-2.11;89.92
65573;SHT30;52214;50.940;13.996;2022-12-11T14:13:26;-2.20;90.90
65573;SHT30;52214;50.940;13.996;2022-12-11T14:15:53;-2.14;90.21
65573;SHT30;52214;50.940;13.996;2022-12-11T14:18:25;-2.11;90.70
65573;SHT30;52214;50.940;13.996;2022-12-11T14:20:59;-2.38;90.79
65573;SHT30;52214;50.940;13.996;2022-12-11T14:23:28;-2.21;91.69
65573;SHT30;52214;50.940;13.996;2022-12-11T14:26:03;-2.14;91.01
65573;SHT30;52214;50.940;13.996;2022-12-11T14:28:35;-2.45;92.28
65573;SHT30;52214;50.940;13.996;2022-12-11T14:31:03;-2.49;93.24
65573;SHT30;52214;50.940;13.996;2022-12-11T14:33:38;-2.52;92.90
65573;SHT30;52214;50.940;13.996;2022-12-11T14:36:05;-2.37;93.90
65573;SHT30;52214;50.940;13.996;2022-12-11T14:39:02;-2.72;95.10
65573;SHT30;52214;50.940;13.996;2022-12-11T14:44:13;-2.90;94.84
65573;SHT30;52214;50.940;13.996;2022-12-11T14:46:54;-2.86;94.94
65573;SHT30;52214;50.940;13.996;2022-12-11T14:49:27;-2.60;94.91
65573;SHT30;52214;50.940;13.996;2022-12-11T14:51:57;-3.05;96.66
65573;SHT30;52214;50.940;13.996;2022-12-11T14:54:29;-3.04;96.34
65573;SHT30;52214;50.940;13.996;2022-12-11T14:56:56;-2.97;97.25
65573;SHT30;52214;50.940;13.996;2022-12-11T14:59:23;-3.09;97.96
65573;SHT30;52214;50.940;13.996;2022-12-11T15:01:58;-3.08;98.23
65573;SHT30;52214;50.940;13.996;2022-12-11T15:04:28;-3.12;99.44
65573;SHT30;52214;50.940;13.996;2022-12-11T15:06:54;-3.12;98.66
65573;SHT30;52214;50.940;13.996;2022-12-11T15:12:13;-3.11;99.30
65573;SHT30;52214;50.940;13.996;2022-12-11T15:15:04;-2.94;98.86
65573;SHT30;52214;50.940;13.996;2022-12-11T15:17:29;-3.15;99.00
65573;SHT30;52214;50.940;13.996;2022-12-11T15:20:06;-3.07;98.27
65573;SHT30;52214;50.940;13.996;2022-12-11T15:22:34;-2.94;98.29
65573;SHT30;52214;50.940;13.996;2022-12-11T15:25:00;-3.19;97.80
65573;SHT30;52214;50.940;13.996;2022-12-11T15:27:37;-3.16;98.35
65573;SHT30;52214;50.940;13.996;2022-12-11T15:32:46;-3.15;98.59
65573;SHT30;52214;50.940;13.996;2022-12-11T15:35:23;-3.11;98.28
65573;SHT30;52214;50.940;13.996;2022-12-11T15:37:54;-3.27;98.17
65573;SHT30;52214;50.940;13.996;2022-12-11T15:40:20;-3.18;98.18
65573;SHT30;52214;50.940;13.996;2022-12-11T15:42:46;-3.32;98.56
65573;SHT30;52214;50.940;13.996;2022-12-11T15:45:18;-3.31;98.74
65573;SHT30;52214;50.940;13.996;2022-12-11T15:50:21;-3.34;99.43
65573;SHT30;52214;50.940;13.996;2022-12-11T15:52:48;-3.51;99.85
65573;SHT30;52214;50.940;13.996;2022-12-11T15:55:14;-3.36;99.99
65573;SHT30;52214;50.940;13.996;2022-12-11T15:57:57;-3.25;99.47
65573;SHT30;52214;50.940;13.996;2022-12-11T16:00:23;-3.25;99.61
65573;SHT30;52214;50.940;13.996;2022-12-11T16:02:51;-3.38;99.99
65573;SHT30;52214;50.940;13.996;2022-12-11T16:05:16;-3.31;99.99
65573;SHT30;52214;50.940;13.996;2022-12-11T16:07:42;-3.46;99.99
65573;SHT30;52214;50.940;13.996;2022-12-11T16:10:14;-3.31;99.99
65573;SHT30;52214;50.940;13.996;2022-12-11T16:12:40;-3.25;99.99
65573;SHT30;52214;50.940;13.996;2022-12-11T16:15:07;-3.22;99.99
65573;SHT30;52214;50.940;13.996;2022-12-11T16:17:32;-3.32;99.86
65573;SHT30;52214;50.940;13.996;2022-12-11T16:19:58;-3.43;99.99
65573;SHT30;52214;50.940;13.996;2022-12-11T16:22:23;-3.38;99.79
65573;SHT30;52214;50.940;13.996;2022-12-11T16:24:53;-3.32;99.85
65573;SHT30;52214;50.940;13.996;2022-12-11T16:27:20;-3.55;99.99
65573;SHT30;52214;50.940;13.996;2022-12-11T16:29:45;-3.45;99.99
65573;SHT30;52214;50.940;13.996;2022-12-11T16:32:11;-3.48;99.99
65573;SHT30;52214;50.940;13.996;2022-12-11T16:34:36;-3.55;99.99
65573;SHT30;52214;50.940;13.996;2022-12-11T16:37:06;-3.58;99.95
65573;SHT30;52214;50.940;13.996;2022-12-11T16:39:33;-3.45;99.99
65573;SHT30;52214;50.940;13.996;2022-12-11T16:41:59;-3.36;98.59
65573;SHT30;52214;50.940;13.996;2022-12-11T16:44:25;-3.51;99.55
65573;SHT30;52214;50.940;13.996;2022-12-11T16:46:52;-3.43;99.15
65573;SHT30;52214;50.940;13.996;2022-12-11T16:49:20;-3.51;99.76
65573;SHT30;52214;50.940;13.996;2022-12-11T16:51:45;-3.59;99.96
65573;SHT30;52214;50.940;13.996;2022-12-11T16:54:11;-3.49;99.99
65573;SHT30;52214;50.940;13.996;2022-12-11T16:56:37;-3.58;99.99